sensor_id;sensor_type;location;lat;lon;timestamp;P1;durP1;ratioP1;P2;durP2;ratioP2
49934;SDS011;39898;41.762;26.200;2023-04-02T00:02:58;5.20;;;3.53;;
49934;SDS011;39898;41.762;26.200;2023-04-02T00:10:28;3.33;;;2.53;;
49934;SDS011;39898;41.762;26.200;2023-04-02T00:13:05;5.13;;;2.72;;
49934;SDS011;39898;41.762;26.200;2023-04-02T00:15:43;3.25;;;2.58;;
49934;SDS011;39898;41.762;26.200;2023-04-02T00:20:39;3.67;;;2.53;;
49934;SDS011;39898;41.762;26.200;2023-04-02T00:23:09;3.42;;;2.80;;
49934;SDS011;39898;41.762;26.200;2023-04-02T00:25:37;5.50;;;3.13;;
49934;SDS011;39898;41.762;26.200;2023-04-02T00:28:16;5.30;;;3.65;;
49934;SDS011;39898;41.762;26.200;2023-04-02T00:30:50;3.92;;;2.90;;
49934;SDS011;39898;41.762;26.200;2023-04-02T00:33:19;3.58;;;2.80;;
49934;SDS011;39898;41.762;26.200;2023-04-02T00:35:47;2.90;;;2.60;;
49934;SDS011;39898;41.762;26.200;2023-04-02T00:38:16;3.15;;;2.70;;
49934;SDS011;39898;41.762;26.200;2023-04-02T00:40:44;3.58;;;2.53;;
49934;SDS011;39898;41.762;26.200;2023-04-02T00:43:12;4.90;;;2.58;;
49934;SDS011;39898;41.762;26.200;2023-04-02T00:45:42;7.53;;;2.95;;
49934;SDS011;39898;41.762;26.200;2023-04-02T00:48:26;3.75;;;2.78;;
49934;SDS011;39898;41.762;26.200;2023-04-02T00:50:56;3.72;;;2.75;;
49934;SDS011;39898;41.762;26.200;2023-04-02T00:53:26;2.70;;;2.20;;
49934;SDS011;39898;41.762;26.200;2023-04-02T00:55:54;4.75;;;2.40;;
49934;SDS011;39898;41.762;26.200;2023-04-02T00:58:28;4.07;;;2.50;;
49934;SDS011;39898;41.762;26.200;2023-04-02T01:00:57;4.22;;;2.38;;
49934;SDS011;39898;41.762;26.200;2023-04-02T01:06:02;4.95;;;2.85;;
49934;SDS011;39898;41.762;26.200;2023-04-02T01:21:50;7.07;;;2.78;;
49934;SDS011;39898;41.762;26.200;2023-04-02T01:24:19;3.92;;;2.70;;
49934;SDS011;39898;41.762;26.200;2023-04-02T01:27:03;5.88;;;3.60;;
49934;SDS011;39898;41.762;26.200;2023-04-02T01:29:32;4.32;;;2.75;;
49934;SDS011;39898;41.762;26.200;2023-04-02T01:32:00;4.88;;;2.63;;
49934;SDS011;39898;41.762;26.200;2023-04-02T01:34:28;8.20;;;3.42;;
49934;SDS011;39898;41.762;26.200;2023-04-02T01:37:57;4.13;;;3.00;;
49934;SDS011;39898;41.762;26.200;2023-04-02T01:45:09;1.92;;;1.58;;
49934;SDS011;39898;41.762;26.200;2023-04-02T01:47:37;2.05;;;1.65;;
49934;SDS011;39898;41.762;26.200;2023-04-02T01:50:11;2.50;;;1.88;;
49934;SDS011;39898;41.762;26.200;2023-04-02T01:52:42;2.85;;;2.25;;
49934;SDS011;39898;41.762;26.200;2023-04-02T01:55:11;2.92;;;2.33;;
49934;SDS011;39898;41.762;26.200;2023-04-02T01:57:41;2.05;;;1.75;;
49934;SDS011;39898;41.762;26.200;2023-04-02T02:00:12;3.30;;;2.03;;
49934;SDS011;39898;41.762;26.200;2023-04-02T02:02:40;2.72;;;2.20;;
49934;SDS011;39898;41.762;26.200;2023-04-02T02:05:14;4.15;;;2.70;;
49934;SDS011;39898;41.762;26.200;2023-04-02T02:07:41;3.33;;;2.30;;
49934;SDS011;39898;41.762;26.200;2023-04-02T02:10:13;2.72;;;1.95;;
49934;SDS011;39898;41.762;26.200;2023-04-02T02:12:40;2.67;;;2.13;;
49934;SDS011;39898;41.762;26.200;2023-04-02T02:15:18;7.85;;;2.33;;
49934;SDS011;39898;41.762;26.200;2023-04-02T02:17:45;5.28;;;3.00;;
49934;SDS011;39898;41.762;26.200;2023-04-02T02:20:11;17.92;;;6.32;;
49934;SDS011;39898;41.762;26.200;2023-04-02T02:22:39;17.48;;;6.82;;
49934;SDS011;39898;41.762;26.200;2023-04-02T02:25:13;19.15;;;6.78;;
49934;SDS011;39898;41.762;26.200;2023-04-02T02:27:42;19.25;;;6.00;;
49934;SDS011;39898;41.762;26.200;2023-04-02T02:30:33;12.57;;;5.82;;
49934;SDS011;39898;41.762;26.200;2023-04-02T02:40:46;13.98;;;4.85;;
49934;SDS011;39898;41.762;26.200;2023-04-02T02:43:13;10.37;;;4.50;;
49934;SDS011;39898;41.762;26.200;2023-04-02T02:45:40;11.57;;;4.28;;
49934;SDS011;39898;41.762;26.200;2023-04-02T02:48:10;6.15;;;3.47;;
49934;SDS011;39898;41.762;26.200;2023-04-02T02:50:37;7.10;;;3.53;;
49934;SDS011;39898;41.762;26.200;2023-04-02T02:53:14;4.50;;;2.53;;
49934;SDS011;39898;41.762;26.200;2023-04-02T02:55:41;6.57;;;3.45;;
49934;SDS011;39898;41.762;26.200;2023-04-02T02:58:08;4.68;;;3.22;;
49934;SDS011;39898;41.762;26.200;2023-04-02T03:00:37;4.50;;;2.80;;
49934;SDS011;39898;41.762;26.200;2023-04-02T03:03:06;4.75;;;3.08;;
49934;SDS011;39898;41.762;26.200;2023-04-02T03:05:33;4.28;;;2.53;;
49934;SDS011;39898;41.762;26.200;2023-04-02T03:08:01;10.50;;;6.07;;
49934;SDS011;39898;41.762;26.200;2023-04-02T03:13:01;14.30;;;7.47;;
49934;SDS011;39898;41.762;26.200;2023-04-02T03:19:14;7.22;;;4.78;;
49934;SDS011;39898;41.762;26.200;2023-04-02T03:21:19;9.95;;;4.20;;
49934;SDS011;39898;41.762;26.200;2023-04-02T03:23:55;9.98;;;4.57;;
49934;SDS011;39898;41.762;26.200;2023-04-02T03:26:31;6.93;;;3.15;;
49934;SDS011;39898;41.762;26.200;2023-04-02T03:29:04;3.58;;;1.95;;
49934;SDS011;39898;41.762;26.200;2023-04-02T03:31:41;3.35;;;1.92;;
49934;SDS011;39898;41.762;26.200;2023-04-02T03:34:15;6.03;;;3.20;;
49934;SDS011;39898;41.762;26.200;2023-04-02T03:41:42;3.58;;;2.10;;
49934;SDS011;39898;41.762;26.200;2023-04-02T03:44:15;4.55;;;2.60;;
49934;SDS011;39898;41.762;26.200;2023-04-02T03:46:44;9.35;;;2.70;;
49934;SDS011;39898;41.762;26.200;2023-04-02T03:49:33;3.17;;;2.25;;
49934;SDS011;39898;41.762;26.200;2023-04-02T03:52:03;5.70;;;2.42;;
49934;SDS011;39898;41.762;26.200;2023-04-02T03:54:31;3.85;;;2.03;;
49934;SDS011;39898;41.762;26.200;2023-04-02T03:56:57;4.00;;;2.00;;
49934;SDS011;39898;41.762;26.200;2023-04-02T04:01:58;3.17;;;2.83;;
49934;SDS011;39898;41.762;26.200;2023-04-02T04:04:27;3.72;;;2.88;;
49934;SDS011;39898;41.762;26.200;2023-04-02T04:06:54;2.50;;;1.85;;
49934;SDS011;39898;41.762;26.200;2023-04-02T04:09:25;1.80;;;1.67;;
49934;SDS011;39898;41.762;26.200;2023-04-02T04:11:59;3.03;;;1.98;;
49934;SDS011;39898;41.762;26.200;2023-04-02T04:14:29;3.17;;;2.15;;
49934;SDS011;39898;41.762;26.200;2023-04-02T04:19:45;2.47;;;1.98;;
49934;SDS011;39898;41.762;26.200;2023-04-02T04:22:18;5.90;;;3.67;;
49934;SDS011;39898;41.762;26.200;2023-04-02T04:24:45;3.63;;;2.30;;
49934;SDS011;39898;41.762;26.200;2023-04-02T04:27:18;6.95;;;3.15;;
49934;SDS011;39898;41.762;26.200;2023-04-02T04:29:49;4.32;;;2.60;;
49934;SDS011;39898;41.762;26.200;2023-04-02T04:34:57;3.10;;;2.25;;
49934;SDS011;39898;41.762;26.200;2023-04-02T04:37:28;2.78;;;1.92;;
49934;SDS011;39898;41.762;26.200;2023-04-02T04:40:00;3.97;;;2.70;;
49934;SDS011;39898;41.762;26.200;2023-04-02T04:42:29;8.27;;;3.17;;
49934;SDS011;39898;41.762;26.200;2023-04-02T04:45:15;8.27;;;3.33;;
49934;SDS011;39898;41.762;26.200;2023-04-02T04:48:02;11.45;;;2.47;;
49934;SDS011;39898;41.762;26.200;2023-04-02T04:52:56;4.75;;;2.72;;
49934;SDS011;39898;41.762;26.200;2023-04-02T04:55:34;3.72;;;2.25;;
49934;SDS011;39898;41.762;26.200;2023-04-02T04:58:25;4.45;;;1.98;;
49934;SDS011;39898;41.762;26.200;2023-04-02T05:03:27;4.18;;;2.30;;
49934;SDS011;39898;41.762;26.200;2023-04-02T05:06:06;2.60;;;2.00;;
49934;SDS011;39898;41.762;26.200;2023-04-02T05:08:35;2.00;;;1.80;;
49934;SDS011;39898;41.762;26.200;2023-04-02T05:11:10;3.28;;;1.95;;
49934;SDS011;39898;41.762;26.200;2023-04-02T05:18:37;5.82;;;2.30;;
49934;SDS011;39898;41.762;26.200;2023-04-02T05:23:46;2.78;;;2.00;;
49934;SDS011;39898;41.762;26.200;2023-04-02T05:31:14;4.68;;;2.50;;
49934;SDS011;39898;41.762;26.200;2023-04-02T05:33:44;25.42;;;10.85;;
49934;SDS011;39898;41.762;26.200;2023-04-02T05:36:11;29.27;;;12.98;;
49934;SDS011;39898;41.762;26.200;2023-04-02T05:38:44;49.40;;;20.88;;
49934;SDS011;39898;41.762;26.200;2023-04-02T05:43:43;63.83;;;30.10;;
49934;SDS011;39898;41.762;26.200;2023-04-02T05:46:19;43.35;;;19.50;;
49934;SDS011;39898;41.762;26.200;2023-04-02T05:48:49;40.40;;;17.35;;
49934;SDS011;39898;41.762;26.200;2023-04-02T05:51:39;11.98;;;5.38;;
49934;SDS011;39898;41.762;26.200;2023-04-02T05:54:03;9.02;;;5.35;;
49934;SDS011;39898;41.762;26.200;2023-04-02T05:56:40;17.05;;;9.23;;
49934;SDS011;39898;41.762;26.200;2023-04-02T06:01:52;10.25;;;3.50;;
49934;SDS011;39898;41.762;26.200;2023-04-02T06:07:49;3.75;;;2.65;;
49934;SDS011;39898;41.762;26.200;2023-04-02T06:12:31;5.43;;;2.38;;
49934;SDS011;39898;41.762;26.200;2023-04-02T06:14:58;3.70;;;2.30;;
49934;SDS011;39898;41.762;26.200;2023-04-02T06:17:25;2.85;;;2.05;;
49934;SDS011;39898;41.762;26.200;2023-04-02T06:19:53;5.63;;;3.97;;
49934;SDS011;39898;41.762;26.200;2023-04-02T06:24:48;5.63;;;2.95;;
49934;SDS011;39898;41.762;26.200;2023-04-02T06:27:15;3.40;;;2.42;;
49934;SDS011;39898;41.762;26.200;2023-04-02T06:29:45;2.88;;;2.17;;
49934;SDS011;39898;41.762;26.200;2023-04-02T06:32:12;2.55;;;1.90;;
49934;SDS011;39898;41.762;26.200;2023-04-02T06:34:39;6.22;;;2.55;;
49934;SDS011;39898;41.762;26.200;2023-04-02T06:39:59;8.55;;;3.15;;
49934;SDS011;39898;41.762;26.200;2023-04-02T06:42:30;3.60;;;2.22;;
49934;SDS011;39898;41.762;26.200;2023-04-02T06:44:59;7.28;;;3.60;;
49934;SDS011;39898;41.762;26.200;2023-04-02T06:50:14;5.32;;;2.50;;
49934;SDS011;39898;41.762;26.200;2023-04-02T06:52:43;5.22;;;2.85;;
49934;SDS011;39898;41.762;26.200;2023-04-02T07:00:34;6.07;;;3.50;;
49934;SDS011;39898;41.762;26.200;2023-04-02T07:03:01;7.35;;;3.60;;
49934;SDS011;39898;41.762;26.200;2023-04-02T07:05:30;7.35;;;3.92;;
49934;SDS011;39898;41.762;26.200;2023-04-02T07:07:57;7.15;;;3.45;;
49934;SDS011;39898;41.762;26.200;2023-04-02T07:10:24;4.75;;;2.28;;
49934;SDS011;39898;41.762;26.200;2023-04-02T07:12:50;2.92;;;1.50;;
49934;SDS011;39898;41.762;26.200;2023-04-02T07:15:17;2.33;;;1.60;;
49934;SDS011;39898;41.762;26.200;2023-04-02T07:17:49;1.80;;;1.40;;
49934;SDS011;39898;41.762;26.200;2023-04-02T07:20:23;7.85;;;2.78;;
49934;SDS011;39898;41.762;26.200;2023-04-02T07:22:49;4.13;;;2.03;;
49934;SDS011;39898;41.762;26.200;2023-04-02T07:25:16;1.88;;;1.48;;
49934;SDS011;39898;41.762;26.200;2023-04-02T07:27:43;3.00;;;1.75;;
49934;SDS011;39898;41.762;26.200;2023-04-02T07:30:09;2.78;;;1.70;;
49934;SDS011;39898;41.762;26.200;2023-04-02T07:32:36;2.10;;;1.42;;
49934;SDS011;39898;41.762;26.200;2023-04-02T07:35:03;1.80;;;1.40;;
49934;SDS011;39898;41.762;26.200;2023-04-02T07:37:30;4.00;;;1.30;;
49934;SDS011;39898;41.762;26.200;2023-04-02T07:39:57;2.33;;;1.23;;
49934;SDS011;39898;41.762;26.200;2023-04-02T07:42:23;3.25;;;1.25;;
49934;SDS011;39898;41.762;26.200;2023-04-02T07:44:50;1.52;;;0.80;;
49934;SDS011;39898;41.762;26.200;2023-04-02T07:47:17;3.53;;;1.08;;
49934;SDS011;39898;41.762;26.200;2023-04-02T07:49:43;1.85;;;0.80;;
49934;SDS011;39898;41.762;26.200;2023-04-02T07:52:10;3.70;;;1.10;;
49934;SDS011;39898;41.762;26.200;2023-04-02T07:54:37;1.45;;;0.82;;
49934;SDS011;39898;41.762;26.200;2023-04-02T07:57:03;6.97;;;1.10;;
49934;SDS011;39898;41.762;26.200;2023-04-02T07:59:30;1.45;;;0.70;;
49934;SDS011;39898;41.762;26.200;2023-04-02T08:01:57;1.60;;;1.00;;
49934;SDS011;39898;41.762;26.200;2023-04-02T08:04:24;1.55;;;0.82;;
49934;SDS011;39898;41.762;26.200;2023-04-02T08:09:18;1.02;;;0.90;;
49934;SDS011;39898;41.762;26.200;2023-04-02T08:11:45;3.95;;;0.80;;
49934;SDS011;39898;41.762;26.200;2023-04-02T08:14:12;1.88;;;0.80;;
49934;SDS011;39898;41.762;26.200;2023-04-02T08:16:48;1.63;;;1.10;;
49934;SDS011;39898;41.762;26.200;2023-04-02T08:19:15;0.73;;;0.60;;
49934;SDS011;39898;41.762;26.200;2023-04-02T08:21:42;1.33;;;1.00;;
49934;SDS011;39898;41.762;26.200;2023-04-02T08:24:08;1.90;;;0.98;;
49934;SDS011;39898;41.762;26.200;2023-04-02T08:26:35;2.38;;;1.10;;
49934;SDS011;39898;41.762;26.200;2023-04-02T08:29:02;2.90;;;0.75;;
49934;SDS011;39898;41.762;26.200;2023-04-02T08:31:29;4.32;;;0.80;;
49934;SDS011;39898;41.762;26.200;2023-04-02T08:33:56;1.17;;;0.65;;
49934;SDS011;39898;41.762;26.200;2023-04-02T08:36:26;1.25;;;0.68;;
49934;SDS011;39898;41.762;26.200;2023-04-02T08:38:54;0.43;;;0.40;;
49934;SDS011;39898;41.762;26.200;2023-04-02T08:41:22;1.30;;;0.73;;
49934;SDS011;39898;41.762;26.200;2023-04-02T08:49:10;1.17;;;0.60;;
49934;SDS011;39898;41.762;26.200;2023-04-02T08:51:37;1.50;;;0.60;;
49934;SDS011;39898;41.762;26.200;2023-04-02T08:54:06;1.25;;;0.70;;
49934;SDS011;39898;41.762;26.200;2023-04-02T09:01:51;7.47;;;0.98;;
49934;SDS011;39898;41.762;26.200;2023-04-02T09:04:20;1.42;;;0.80;;
49934;SDS011;39898;41.762;26.200;2023-04-02T09:06:48;2.05;;;1.02;;
49934;SDS011;39898;41.762;26.200;2023-04-02T09:09:15;2.17;;;0.82;;
49934;SDS011;39898;41.762;26.200;2023-04-02T09:14:18;1.58;;;0.73;;
49934;SDS011;39898;41.762;26.200;2023-04-02T09:19:16;3.35;;;0.93;;
49934;SDS011;39898;41.762;26.200;2023-04-02T09:24:29;0.93;;;0.50;;
49934;SDS011;39898;41.762;26.200;2023-04-02T09:26:55;1.20;;;0.63;;
49934;SDS011;39898;41.762;26.200;2023-04-02T09:29:30;1.48;;;0.63;;
49934;SDS011;39898;41.762;26.200;2023-04-02T09:32:06;1.65;;;0.90;;
49934;SDS011;39898;41.762;26.200;2023-04-02T09:34:37;1.05;;;0.70;;
49934;SDS011;39898;41.762;26.200;2023-04-02T09:37:11;1.80;;;0.60;;
49934;SDS011;39898;41.762;26.200;2023-04-02T09:39:39;0.90;;;0.60;;
49934;SDS011;39898;41.762;26.200;2023-04-02T09:42:06;1.17;;;0.68;;
49934;SDS011;39898;41.762;26.200;2023-04-02T09:44:33;1.58;;;0.70;;
49934;SDS011;39898;41.762;26.200;2023-04-02T09:47:01;1.88;;;0.90;;
49934;SDS011;39898;41.762;26.200;2023-04-02T09:49:35;3.63;;;1.00;;
49934;SDS011;39898;41.762;26.200;2023-04-02T09:57:32;2.28;;;0.95;;
49934;SDS011;39898;41.762;26.200;2023-04-02T10:00:06;1.55;;;0.77;;
49934;SDS011;39898;41.762;26.200;2023-04-02T10:02:44;0.95;;;0.73;;
49934;SDS011;39898;41.762;26.200;2023-04-02T10:05:18;0.60;;;0.55;;
49934;SDS011;39898;41.762;26.200;2023-04-02T10:08:07;1.73;;;0.75;;
49934;SDS011;39898;41.762;26.200;2023-04-02T10:10:36;4.10;;;0.80;;
49934;SDS011;39898;41.762;26.200;2023-04-02T10:15:36;2.70;;;1.88;;
49934;SDS011;39898;41.762;26.200;2023-04-02T10:20:38;7.68;;;3.05;;
49934;SDS011;39898;41.762;26.200;2023-04-02T10:23:16;3.55;;;1.60;;
49934;SDS011;39898;41.762;26.200;2023-04-02T10:28:46;2.38;;;0.77;;
49934;SDS011;39898;41.762;26.200;2023-04-02T10:31:22;2.65;;;0.60;;
49934;SDS011;39898;41.762;26.200;2023-04-02T10:33:51;4.65;;;2.63;;
49934;SDS011;39898;41.762;26.200;2023-04-02T10:36:39;5.28;;;3.05;;
49934;SDS011;39898;41.762;26.200;2023-04-02T10:39:33;1.55;;;0.90;;
49934;SDS011;39898;41.762;26.200;2023-04-02T10:42:16;1.95;;;1.30;;
49934;SDS011;39898;41.762;26.200;2023-04-02T10:44:53;1.30;;;0.80;;
49934;SDS011;39898;41.762;26.200;2023-04-02T10:52:23;1.80;;;0.95;;
49934;SDS011;39898;41.762;26.200;2023-04-02T10:55:02;0.70;;;0.70;;
49934;SDS011;39898;41.762;26.200;2023-04-02T11:00:06;1.20;;;0.70;;
49934;SDS011;39898;41.762;26.200;2023-04-02T11:08:35;3.22;;;1.80;;
49934;SDS011;39898;41.762;26.200;2023-04-02T11:11:40;2.25;;;1.80;;
49934;SDS011;39898;41.762;26.200;2023-04-02T11:13:49;3.60;;;1.25;;
49934;SDS011;39898;41.762;26.200;2023-04-02T11:16:17;2.58;;;1.55;;
49934;SDS011;39898;41.762;26.200;2023-04-02T11:21:46;2.03;;;1.00;;
49934;SDS011;39898;41.762;26.200;2023-04-02T11:27:03;1.00;;;0.80;;
49934;SDS011;39898;41.762;26.200;2023-04-02T11:29:31;0.90;;;0.68;;
49934;SDS011;39898;41.762;26.200;2023-04-02T11:34:56;6.82;;;5.35;;
49934;SDS011;39898;41.762;26.200;2023-04-02T11:42:46;3.63;;;2.17;;
49934;SDS011;39898;41.762;26.200;2023-04-02T11:52:53;0.85;;;0.50;;
49934;SDS011;39898;41.762;26.200;2023-04-02T11:55:24;1.73;;;0.70;;
49934;SDS011;39898;41.762;26.200;2023-04-02T12:00:31;1.38;;;0.70;;
49934;SDS011;39898;41.762;26.200;2023-04-02T12:05:53;1.30;;;0.40;;
49934;SDS011;39898;41.762;26.200;2023-04-02T12:11:35;2.10;;;0.80;;
49934;SDS011;39898;41.762;26.200;2023-04-02T12:14:06;2.65;;;1.88;;
49934;SDS011;39898;41.762;26.200;2023-04-02T12:16:33;5.55;;;2.83;;
49934;SDS011;39898;41.762;26.200;2023-04-02T12:19:00;2.47;;;1.23;;
49934;SDS011;39898;41.762;26.200;2023-04-02T12:21:28;3.93;;;1.77;;
49934;SDS011;39898;41.762;26.200;2023-04-02T12:23:56;7.82;;;1.70;;
49934;SDS011;39898;41.762;26.200;2023-04-02T12:26:24;2.63;;;0.80;;
49934;SDS011;39898;41.762;26.200;2023-04-02T12:28:51;5.82;;;2.20;;
49934;SDS011;39898;41.762;26.200;2023-04-02T12:31:18;2.70;;;1.15;;
49934;SDS011;39898;41.762;26.200;2023-04-02T12:33:49;1.25;;;0.90;;
49934;SDS011;39898;41.762;26.200;2023-04-02T12:36:18;4.53;;;2.70;;
49934;SDS011;39898;41.762;26.200;2023-04-02T12:38:46;1.80;;;0.90;;
49934;SDS011;39898;41.762;26.200;2023-04-02T12:41:23;53.60;;;18.73;;
49934;SDS011;39898;41.762;26.200;2023-04-02T12:43:56;1.50;;;1.10;;
49934;SDS011;39898;41.762;26.200;2023-04-02T12:46:23;1.85;;;0.95;;
49934;SDS011;39898;41.762;26.200;2023-04-02T12:48:52;2.25;;;1.35;;
49934;SDS011;39898;41.762;26.200;2023-04-02T12:51:19;3.42;;;1.00;;
49934;SDS011;39898;41.762;26.200;2023-04-02T12:53:49;2.67;;;0.70;;
49934;SDS011;39898;41.762;26.200;2023-04-02T12:56:18;4.30;;;1.73;;
49934;SDS011;39898;41.762;26.200;2023-04-02T12:58:57;1.25;;;0.75;;
49934;SDS011;39898;41.762;26.200;2023-04-02T13:01:24;2.05;;;1.20;;
49934;SDS011;39898;41.762;26.200;2023-04-02T13:06:29;3.13;;;0.77;;
49934;SDS011;39898;41.762;26.200;2023-04-02T13:08:56;2.75;;;1.10;;
49934;SDS011;39898;41.762;26.200;2023-04-02T13:11:32;1.83;;;0.80;;
49934;SDS011;39898;41.762;26.200;2023-04-02T13:14:00;5.93;;;2.05;;
49934;SDS011;39898;41.762;26.200;2023-04-02T13:16:36;8.23;;;1.40;;
49934;SDS011;39898;41.762;26.200;2023-04-02T13:19:23;4.10;;;1.25;;
49934;SDS011;39898;41.762;26.200;2023-04-02T13:21:50;6.75;;;1.35;;
49934;SDS011;39898;41.762;26.200;2023-04-02T13:24:25;5.20;;;1.60;;
49934;SDS011;39898;41.762;26.200;2023-04-02T13:26:53;4.88;;;1.73;;
49934;SDS011;39898;41.762;26.200;2023-04-02T13:31:47;7.53;;;3.20;;
49934;SDS011;39898;41.762;26.200;2023-04-02T13:34:14;6.25;;;2.63;;
49934;SDS011;39898;41.762;26.200;2023-04-02T13:36:40;2.70;;;1.00;;
49934;SDS011;39898;41.762;26.200;2023-04-02T13:39:07;7.22;;;2.10;;
49934;SDS011;39898;41.762;26.200;2023-04-02T13:41:36;3.83;;;1.88;;
49934;SDS011;39898;41.762;26.200;2023-04-02T13:44:04;14.70;;;5.45;;
49934;SDS011;39898;41.762;26.200;2023-04-02T13:46:32;5.88;;;1.83;;
49934;SDS011;39898;41.762;26.200;2023-04-02T13:48:59;3.10;;;1.45;;
49934;SDS011;39898;41.762;26.200;2023-04-02T13:51:28;4.75;;;1.80;;
49934;SDS011;39898;41.762;26.200;2023-04-02T13:53:57;3.85;;;1.75;;
49934;SDS011;39898;41.762;26.200;2023-04-02T13:56:23;7.30;;;3.35;;
49934;SDS011;39898;41.762;26.200;2023-04-02T13:58:50;9.70;;;1.80;;
49934;SDS011;39898;41.762;26.200;2023-04-02T14:01:18;9.90;;;1.60;;
49934;SDS011;39898;41.762;26.200;2023-04-02T14:03:45;3.95;;;1.42;;
49934;SDS011;39898;41.762;26.200;2023-04-02T14:32:40;8.60;;;2.10;;
49934;SDS011;39898;41.762;26.200;2023-04-02T14:47:46;9.85;;;3.13;;
49934;SDS011;39898;41.762;26.200;2023-04-02T14:50:16;26.42;;;13.30;;
49934;SDS011;39898;41.762;26.200;2023-04-02T14:52:44;13.93;;;5.53;;
49934;SDS011;39898;41.762;26.200;2023-04-02T14:57:40;16.77;;;4.32;;
49934;SDS011;39898;41.762;26.200;2023-04-02T15:08:25;13.95;;;5.00;;
49934;SDS011;39898;41.762;26.200;2023-04-02T15:13:20;11.25;;;2.95;;
49934;SDS011;39898;41.762;26.200;2023-04-02T15:15:49;10.32;;;2.75;;
49934;SDS011;39898;41.762;26.200;2023-04-02T15:18:17;8.15;;;3.72;;
49934;SDS011;39898;41.762;26.200;2023-04-02T15:21:00;8.60;;;3.30;;
49934;SDS011;39898;41.762;26.200;2023-04-02T15:25:59;19.13;;;10.02;;
49934;SDS011;39898;41.762;26.200;2023-04-02T15:28:29;16.23;;;6.30;;
49934;SDS011;39898;41.762;26.200;2023-04-02T15:30:58;17.75;;;9.18;;
49934;SDS011;39898;41.762;26.200;2023-04-02T15:41:31;9.10;;;5.00;;
49934;SDS011;39898;41.762;26.200;2023-04-02T15:44:03;6.53;;;2.72;;
49934;SDS011;39898;41.762;26.200;2023-04-02T15:52:09;5.57;;;3.45;;
49934;SDS011;39898;41.762;26.200;2023-04-02T15:57:27;18.42;;;8.15;;
49934;SDS011;39898;41.762;26.200;2023-04-02T16:00:12;9.93;;;5.10;;
49934;SDS011;39898;41.762;26.200;2023-04-02T16:05:33;12.75;;;5.70;;
49934;SDS011;39898;41.762;26.200;2023-04-02T16:10:38;9.23;;;5.20;;
49934;SDS011;39898;41.762;26.200;2023-04-02T16:13:27;6.05;;;2.90;;
49934;SDS011;39898;41.762;26.200;2023-04-02T16:20:53;10.05;;;4.90;;
49934;SDS011;39898;41.762;26.200;2023-04-02T16:23:27;7.60;;;3.10;;
49934;SDS011;39898;41.762;26.200;2023-04-02T16:33:59;18.98;;;9.68;;
49934;SDS011;39898;41.762;26.200;2023-04-02T16:44:36;11.35;;;4.85;;
49934;SDS011;39898;41.762;26.200;2023-04-02T16:47:15;9.27;;;5.18;;
49934;SDS011;39898;41.762;26.200;2023-04-02T16:49:53;13.07;;;6.93;;
49934;SDS011;39898;41.762;26.200;2023-04-02T16:58:11;13.52;;;5.45;;
49934;SDS011;39898;41.762;26.200;2023-04-02T17:00:35;20.90;;;7.15;;
49934;SDS011;39898;41.762;26.200;2023-04-02T17:13:15;20.10;;;6.60;;
49934;SDS011;39898;41.762;26.200;2023-04-02T17:15:44;14.73;;;4.65;;
49934;SDS011;39898;41.762;26.200;2023-04-02T17:18:21;7.50;;;4.05;;
49934;SDS011;39898;41.762;26.200;2023-04-02T17:20:50;11.63;;;4.50;;
49934;SDS011;39898;41.762;26.200;2023-04-02T17:23:17;15.85;;;6.60;;
49934;SDS011;39898;41.762;26.200;2023-04-02T17:25:47;13.95;;;6.38;;
49934;SDS011;39898;41.762;26.200;2023-04-02T17:28:15;10.93;;;5.10;;
49934;SDS011;39898;41.762;26.200;2023-04-02T17:30:45;8.07;;;4.00;;
49934;SDS011;39898;41.762;26.200;2023-04-02T17:33:14;10.60;;;3.92;;
49934;SDS011;39898;41.762;26.200;2023-04-02T17:41:12;59.88;;;23.80;;
49934;SDS011;39898;41.762;26.200;2023-04-02T17:49:11;82.75;;;35.95;;
49934;SDS011;39898;41.762;26.200;2023-04-02T17:51:56;156.63;;;70.68;;
49934;SDS011;39898;41.762;26.200;2023-04-02T18:10:24;23.15;;;11.93;;
49934;SDS011;39898;41.762;26.200;2023-04-02T18:12:56;28.77;;;12.90;;
49934;SDS011;39898;41.762;26.200;2023-04-02T18:18:24;54.30;;;25.20;;
49934;SDS011;39898;41.762;26.200;2023-04-02T18:23:24;15.10;;;7.50;;
49934;SDS011;39898;41.762;26.200;2023-04-02T18:26:12;19.27;;;7.03;;
49934;SDS011;39898;41.762;26.200;2023-04-02T18:31:39;13.60;;;5.68;;
49934;SDS011;39898;41.762;26.200;2023-04-02T18:39:39;6.97;;;3.28;;
49934;SDS011;39898;41.762;26.200;2023-04-02T18:42:14;13.82;;;4.45;;
49934;SDS011;39898;41.762;26.200;2023-04-02T18:44:46;25.30;;;9.57;;
49934;SDS011;39898;41.762;26.200;2023-04-02T18:47:23;18.00;;;7.45;;
49934;SDS011;39898;41.762;26.200;2023-04-02T18:49:52;23.50;;;10.98;;
49934;SDS011;39898;41.762;26.200;2023-04-02T18:52:21;48.08;;;19.17;;
49934;SDS011;39898;41.762;26.200;2023-04-02T18:57:23;46.83;;;20.92;;
49934;SDS011;39898;41.762;26.200;2023-04-02T19:00:03;59.78;;;27.00;;
49934;SDS011;39898;41.762;26.200;2023-04-02T19:02:34;48.60;;;20.75;;
49934;SDS011;39898;41.762;26.200;2023-04-02T19:05:11;20.20;;;9.98;;
49934;SDS011;39898;41.762;26.200;2023-04-02T19:07:39;24.20;;;10.93;;
49934;SDS011;39898;41.762;26.200;2023-04-02T19:10:12;16.52;;;8.05;;
49934;SDS011;39898;41.762;26.200;2023-04-02T19:12:45;18.92;;;9.30;;
49934;SDS011;39898;41.762;26.200;2023-04-02T19:15:15;26.15;;;9.68;;
49934;SDS011;39898;41.762;26.200;2023-04-02T19:17:45;18.38;;;8.90;;
49934;SDS011;39898;41.762;26.200;2023-04-02T19:43:05;19.15;;;9.00;;
49934;SDS011;39898;41.762;26.200;2023-04-02T19:45:36;15.27;;;7.45;;
49934;SDS011;39898;41.762;26.200;2023-04-02T19:48:20;19.73;;;6.97;;
49934;SDS011;39898;41.762;26.200;2023-04-02T19:50:49;20.42;;;7.30;;
49934;SDS011;39898;41.762;26.200;2023-04-02T19:53:16;19.00;;;7.25;;
49934;SDS011;39898;41.762;26.200;2023-04-02T19:55:43;13.13;;;5.78;;
49934;SDS011;39898;41.762;26.200;2023-04-02T19:58:17;11.87;;;5.23;;
49934;SDS011;39898;41.762;26.200;2023-04-02T20:00:48;16.90;;;6.20;;
49934;SDS011;39898;41.762;26.200;2023-04-02T20:03:15;14.98;;;5.13;;
49934;SDS011;39898;41.762;26.200;2023-04-02T20:05:42;11.82;;;4.78;;
49934;SDS011;39898;41.762;26.200;2023-04-02T20:08:09;9.23;;;5.28;;
49934;SDS011;39898;41.762;26.200;2023-04-02T20:10:38;10.70;;;4.97;;
49934;SDS011;39898;41.762;26.200;2023-04-02T20:13:06;11.90;;;4.32;;
49934;SDS011;39898;41.762;26.200;2023-04-02T20:15:34;10.90;;;3.92;;
49934;SDS011;39898;41.762;26.200;2023-04-02T20:18:01;12.15;;;4.72;;
49934;SDS011;39898;41.762;26.200;2023-04-02T20:20:28;8.45;;;4.00;;
49934;SDS011;39898;41.762;26.200;2023-04-02T20:22:54;13.25;;;5.43;;
49934;SDS011;39898;41.762;26.200;2023-04-02T20:25:21;14.40;;;5.00;;
49934;SDS011;39898;41.762;26.200;2023-04-02T20:27:48;10.10;;;4.03;;
49934;SDS011;39898;41.762;26.200;2023-04-02T20:30:15;9.50;;;3.63;;
49934;SDS011;39898;41.762;26.200;2023-04-02T20:32:41;9.85;;;3.72;;
49934;SDS011;39898;41.762;26.200;2023-04-02T20:35:08;11.15;;;3.50;;
49934;SDS011;39898;41.762;26.200;2023-04-02T20:37:35;7.90;;;2.97;;
49934;SDS011;39898;41.762;26.200;2023-04-02T20:40:01;13.18;;;3.75;;
49934;SDS011;39898;41.762;26.200;2023-04-02T20:42:28;8.90;;;3.33;;
49934;SDS011;39898;41.762;26.200;2023-04-02T20:44:54;9.73;;;3.55;;
49934;SDS011;39898;41.762;26.200;2023-04-02T20:47:21;8.65;;;3.88;;
49934;SDS011;39898;41.762;26.200;2023-04-02T20:49:48;12.15;;;3.65;;
49934;SDS011;39898;41.762;26.200;2023-04-02T20:52:15;6.85;;;3.55;;